sensor_id;sensor_type;location;lat;lon;timestamp;pressure;altitude;pressure_sealevel;temperature;humidity
13314;BME280;6725;48.112;11.604;2023-02-14T00:00:31;95981.88;;;0.51;100.00
13314;BME280;6725;48.112;11.604;2023-02-14T00:02:56;95970.31;;;0.59;100.00
13314;BME280;6725;48.112;11.604;2023-02-14T00:05:21;95976.59;;;0.63;100.00
13314;BME280;6725;48.112;11.604;2023-02-14T00:07:47;95981.06;;;0.59;100.00
13314;BME280;6725;48.112;11.604;2023-02-14T00:10:12;95996.41;;;0.50;100.00
13314;BME280;6725;48.112;11.604;2023-02-14T00:12:37;96002.25;;;0.23;100.00
13314;BME280;6725;48.112;11.604;2023-02-14T00:15:03;96005.38;;;0.25;100.00
13314;BME280;6725;48.112;11.604;2023-02-14T00:17:47;96004.47;;;0.13;100.00
13314;BME280;6725;48.112;11.604;2023-02-14T00:20:13;96000.38;;;0.15;100.00
13314;BME280;6725;48.112;11.604;2023-02-14T00:22:38;96005.75;;;0.15;100.00
13314;BME280;6725;48.112;11.604;2023-02-14T00:25:04;96003.06;;;0.15;100.00
13314;BME280;6725;48.112;11.604;2023-02-14T00:27:29;95997.72;;;0.07;100.00
13314;BME280;6725;48.112;11.604;2023-02-14T00:29:55;96001.03;;;0.12;100.00
13314;BME280;6725;48.112;11.604;2023-02-14T00:32:22;96004.47;;;0.13;100.00
13314;BME280;6725;48.112;11.604;2023-02-14T00:34:47;96009.84;;;0.13;100.00
13314;BME280;6725;48.112;11.604;2023-02-14T00:37:13;95999.91;;;0.13;100.00
13314;BME280;6725;48.112;11.604;2023-02-14T00:39:38;96002.69;;;0.25;100.00
13314;BME280;6725;48.112;11.604;2023-02-14T00:42:03;95989.38;;;0.37;100.00
13314;BME280;6725;48.112;11.604;2023-02-14T00:44:29;95987.44;;;0.46;100.00
13314;BME280;6725;48.112;11.604;2023-02-14T00:46:54;95978.09;;;0.52;100.00
13314;BME280;6725;48.112;11.604;2023-02-14T00:49:19;95986.78;;;0.49;100.00
13314;BME280;6725;48.112;11.604;2023-02-14T00:51:45;95988.34;;;0.50;100.00
13314;BME280;6725;48.112;11.604;2023-02-14T00:54:10;95987.00;;;0.44;100.00
13314;BME280;6725;48.112;11.604;2023-02-14T00:56:35;95990.59;;;0.48;100.00
13314;BME280;6725;48.112;11.604;2023-02-14T00:59:01;96011.81;;;0.41;100.00
13314;BME280;6725;48.112;11.604;2023-02-14T01:01:27;96014.66;;;0.36;100.00
13314;BME280;6725;48.112;11.604;2023-02-14T01:03:52;96012.72;;;0.45;100.00
13314;BME280;6725;48.112;11.604;2023-02-14T01:06:18;96014.94;;;0.43;100.00
13314;BME280;6725;48.112;11.604;2023-02-14T01:08:43;96010.50;;;0.47;100.00
13314;BME280;6725;48.112;11.604;2023-02-14T01:11:13;95999.38;;;0.57;100.00
13314;BME280;6725;48.112;11.604;2023-02-14T01:13:39;95994.28;;;0.64;100.00
13314;BME280;6725;48.112;11.604;2023-02-14T01:16:07;96002.53;;;0.59;100.00
13314;BME280;6725;48.112;11.604;2023-02-14T01:18:34;96013.34;;;0.51;100.00
13314;BME280;6725;48.112;11.604;2023-02-14T01:21:12;96015.31;;;0.33;100.00
13314;BME280;6725;48.112;11.604;2023-02-14T01:23:38;96013.91;;;0.27;100.00
13314;BME280;6725;48.112;11.604;2023-02-14T01:26:06;96009.22;;;0.16;100.00
13314;BME280;6725;48.112;11.604;2023-02-14T01:28:32;96012.09;;;0.11;100.00
13314;BME280;6725;48.112;11.604;2023-02-14T01:31:13;96025.81;;;0.09;100.00
13314;BME280;6725;48.112;11.604;2023-02-14T01:33:40;96028.53;;;0.00;100.00
13314;BME280;6725;48.112;11.604;2023-02-14T01:36:06;96034.06;;;0.04;100.00
13314;BME280;6725;48.112;11.604;2023-02-14T01:38:32;96038.19;;;-0.07;100.00
13314;BME280;6725;48.112;11.604;2023-02-14T01:40:57;96040.41;;;-0.09;100.00
13314;BME280;6725;48.112;11.604;2023-02-14T01:43:23;96041.97;;;-0.08;100.00
13314;BME280;6725;48.112;11.604;2023-02-14T01:45:49;96043.56;;;-0.07;100.00
13314;BME280;6725;48.112;11.604;2023-02-14T01:48:16;96033.75;;;-0.03;100.00
13314;BME280;6725;48.112;11.604;2023-02-14T01:50:44;96036.59;;;-0.08;100.00
13314;BME280;6725;48.112;11.604;2023-02-14T01:53:14;96039.78;;;-0.23;100.00
13314;BME280;6725;48.112;11.604;2023-02-14T01:55:45;96046.91;;;-0.36;100.00
13314;BME280;6725;48.112;11.604;2023-02-14T01:58:14;96039.78;;;-0.23;100.00
13314;BME280;6725;48.112;11.604;2023-02-14T02:00:42;96028.72;;;-0.13;100.00
13314;BME280;6725;48.112;11.604;2023-02-14T02:03:36;96040.53;;;-0.06;100.00
13314;BME280;6725;48.112;11.604;2023-02-14T02:08:39;96049.91;;;-0.29;100.00
13314;BME280;6725;48.112;11.604;2023-02-14T02:11:07;96026.84;;;-0.21;100.00
13314;BME280;6725;48.112;11.604;2023-02-14T02:13:32;96023.66;;;-0.06;100.00
13314;BME280;6725;48.112;11.604;2023-02-14T02:32:30;96036.34;;;-0.32;100.00
13314;BME280;6725;48.112;11.604;2023-02-14T02:40:40;96016.63;;;-0.45;100.00
13314;BME280;6725;48.112;11.604;2023-02-14T02:48:58;96017.44;;;-0.53;100.00
13314;BME280;6725;48.112;11.604;2023-02-14T02:51:43;96022.50;;;-0.51;100.00
13314;BME280;6725;48.112;11.604;2023-02-14T02:54:36;96013.66;;;-0.43;100.00
13314;BME280;6725;48.112;11.604;2023-02-14T02:57:08;96012.03;;;-0.44;100.00
13314;BME280;6725;48.112;11.604;2023-02-14T02:59:39;96017.09;;;-0.43;100.00
13314;BME280;6725;48.112;11.604;2023-02-14T03:02:13;96013.00;;;-0.40;100.00
13314;BME280;6725;48.112;11.604;2023-02-14T03:04:43;96034.63;;;-0.45;100.00
13314;BME280;6725;48.112;11.604;2023-02-14T03:10:04;96023.25;;;-0.42;100.00
13314;BME280;6725;48.112;11.604;2023-02-14T03:20:15;96029.91;;;-0.65;100.00
13314;BME280;6725;48.112;11.604;2023-02-14T03:28:46;96038.28;;;-0.58;100.00
13314;BME280;6725;48.112;11.604;2023-02-14T03:31:19;96030.69;;;-0.48;100.00
13314;BME280;6725;48.112;11.604;2023-02-14T03:33:55;96017.72;;;-0.37;100.00
13314;BME280;6725;48.112;11.604;2023-02-14T03:36:50;96011.09;;;-0.31;100.00
13314;BME280;6725;48.112;11.604;2023-02-14T03:39:27;96022.75;;;-0.27;100.00
13314;BME280;6725;48.112;11.604;2023-02-14T03:42:02;96025.44;;;-0.36;100.00
13314;BME280;6725;48.112;11.604;2023-02-14T03:44:32;96028.13;;;-0.27;100.00
13314;BME280;6725;48.112;11.604;2023-02-14T03:47:03;96036.97;;;-0.35;100.00
13314;BME280;6725;48.112;11.604;2023-02-14T03:49:33;96043.28;;;-0.48;100.00
13314;BME280;6725;48.112;11.604;2023-02-14T03:52:01;96047.09;;;-0.49;100.00
13314;BME280;6725;48.112;11.604;2023-02-14T03:54:29;96056.56;;;-0.60;100.00
13314;BME280;6725;48.112;11.604;2023-02-14T03:57:10;96058.78;;;-0.71;100.00
13314;BME280;6725;48.112;11.604;2023-02-14T03:59:38;96069.47;;;-0.79;100.00
13314;BME280;6725;48.112;11.604;2023-02-14T04:02:21;96071.06;;;-0.95;100.00
13314;BME280;6725;48.112;11.604;2023-02-14T04:04:49;96061.59;;;-0.84;100.00
13314;BME280;6725;48.112;11.604;2023-02-14T04:07:18;96067.91;;;-0.80;100.00
13314;BME280;6725;48.112;11.604;2023-02-14T04:09:44;96068.69;;;-0.97;100.00
13314;BME280;6725;48.112;11.604;2023-02-14T04:12:10;96068.69;;;-0.97;100.00
13314;BME280;6725;48.112;11.604;2023-02-14T04:14:36;96061.75;;;-0.81;100.00
13314;BME280;6725;48.112;11.604;2023-02-14T04:17:01;96069.47;;;-0.79;100.00
13314;BME280;6725;48.112;11.604;2023-02-14T04:19:46;96060.66;;;-0.71;100.00
13314;BME280;6725;48.112;11.604;2023-02-14T04:22:11;96070.56;;;-0.72;100.00
13314;BME280;6725;48.112;11.604;2023-02-14T04:24:37;96071.34;;;-0.88;100.00
13314;BME280;6725;48.112;11.604;2023-02-14T04:27:02;96060.63;;;-0.88;100.00
13314;BME280;6725;48.112;11.604;2023-02-14T04:29:38;96061.91;;;-0.77;100.00
13314;BME280;6725;48.112;11.604;2023-02-14T04:32:06;96046.13;;;-0.70;100.00
13314;BME280;6725;48.112;11.604;2023-02-14T04:34:32;96046.78;;;-0.56;100.00
13314;BME280;6725;48.112;11.604;2023-02-14T04:36:57;96058.78;;;-0.62;100.00
13314;BME280;6725;48.112;11.604;2023-02-14T04:39:23;96057.66;;;-0.61;100.00
13314;BME280;6725;48.112;11.604;2023-02-14T04:41:48;96052.94;;;-0.56;100.00
13314;BME280;6725;48.112;11.604;2023-02-14T04:44:14;96044.41;;;-0.49;100.00
13314;BME280;6725;48.112;11.604;2023-02-14T04:46:39;96042.66;;;-0.45;100.00
13314;BME280;6725;48.112;11.604;2023-02-14T04:49:04;96039.84;;;-0.40;100.00
13314;BME280;6725;48.112;11.604;2023-02-14T04:51:30;96040.16;;;-0.42;100.00
13314;BME280;6725;48.112;11.604;2023-02-14T04:53:55;96035.72;;;-0.46;100.00
13314;BME280;6725;48.112;11.604;2023-02-14T04:56:20;96035.88;;;-0.43;100.00
13314;BME280;6725;48.112;11.604;2023-02-14T04:58:46;96038.22;;;-0.41;100.00
13314;BME280;6725;48.112;11.604;2023-02-14T05:01:11;96052.31;;;-0.61;100.00
13314;BME280;6725;48.112;11.604;2023-02-14T05:03:36;96049.31;;;-0.68;100.00
13314;BME280;6725;48.112;11.604;2023-02-14T05:06:02;96044.75;;;-0.68;100.00
13314;BME280;6725;48.112;11.604;2023-02-14T05:08:27;96046.94;;;-0.61;100.00
13314;BME280;6725;48.112;11.604;2023-02-14T05:10:53;96043.78;;;-0.63;100.00
13314;BME280;6725;48.112;11.604;2023-02-14T05:13:19;96039.84;;;-0.57;100.00
13314;BME280;6725;48.112;11.604;2023-02-14T05:15:45;96048.81;;;-0.62;100.00
13314;BME280;6725;48.112;11.604;2023-02-14T05:18:10;96054.34;;;-0.75;100.00
13314;BME280;6725;48.112;11.604;2023-02-14T05:20:35;96058.94;;;-0.84;100.00
13314;BME280;6725;48.112;11.604;2023-02-14T05:23:01;96061.28;;;-0.91;100.00
13314;BME280;6725;48.112;11.604;2023-02-14T05:25:29;96051.84;;;-0.80;100.00
13314;BME280;6725;48.112;11.604;2023-02-14T05:27:55;96056.09;;;-0.79;100.00
13314;BME280;6725;48.112;11.604;2023-02-14T05:30:21;96056.88;;;-0.79;100.00
13314;BME280;6725;48.112;11.604;2023-02-14T05:32:51;96050.09;;;-0.68;100.00
13314;BME280;6725;48.112;11.604;2023-02-14T05:35:16;96063.34;;;-0.71;100.00
13314;BME280;6725;48.112;11.604;2023-02-14T05:37:42;96072.00;;;-0.91;100.00
13314;BME280;6725;48.112;11.604;2023-02-14T05:40:07;96077.50;;;-0.88;100.00
13314;BME280;6725;48.112;11.604;2023-02-14T05:42:33;96077.19;;;-0.86;100.00
13314;BME280;6725;48.112;11.604;2023-02-14T05:44:58;96086.19;;;-0.82;100.00
13314;BME280;6725;48.112;11.604;2023-02-14T05:47:24;96087.28;;;-0.83;100.00
13314;BME280;6725;48.112;11.604;2023-02-14T05:49:49;96082.72;;;-0.74;100.00
13314;BME280;6725;48.112;11.604;2023-02-14T05:52:15;96086.84;;;-0.68;100.00
13314;BME280;6725;48.112;11.604;2023-02-14T05:54:40;96084.94;;;-0.76;100.00
13314;BME280;6725;48.112;11.604;2023-02-14T05:57:05;96087.63;;;-0.68;100.00
13314;BME280;6725;48.112;11.604;2023-02-14T05:59:31;96087.47;;;-0.71;100.00
13314;BME280;6725;48.112;11.604;2023-02-14T06:01:56;96091.09;;;-0.67;100.00
13314;BME280;6725;48.112;11.604;2023-02-14T06:04:21;96090.78;;;-0.66;100.00
13314;BME280;6725;48.112;11.604;2023-02-14T06:06:47;96104.50;;;-0.67;100.00
13314;BME280;6725;48.112;11.604;2023-02-14T06:09:12;96104.50;;;-0.67;100.00
13314;BME280;6725;48.112;11.604;2023-02-14T06:11:38;96101.34;;;-0.69;100.00
13314;BME280;6725;48.112;11.604;2023-02-14T06:14:03;96106.72;;;-0.69;100.00
13314;BME280;6725;48.112;11.604;2023-02-14T06:16:28;96125.00;;;-0.71;100.00
13314;BME280;6725;48.112;11.604;2023-02-14T06:18:54;96119.16;;;-0.65;100.00
13314;BME280;6725;48.112;11.604;2023-02-14T06:21:19;96116.78;;;-0.58;100.00
13314;BME280;6725;48.112;11.604;2023-02-14T06:23:44;96121.53;;;-0.63;100.00
13314;BME280;6725;48.112;11.604;2023-02-14T06:26:10;96121.69;;;-0.60;100.00
13314;BME280;6725;48.112;11.604;2023-02-14T06:28:35;96133.19;;;-0.59;100.00
13314;BME280;6725;48.112;11.604;2023-02-14T06:31:00;96142.19;;;-0.55;100.00
13314;BME280;6725;48.112;11.604;2023-02-14T06:33:26;96132.91;;;-0.49;100.00
13314;BME280;6725;48.112;11.604;2023-02-14T06:35:52;96138.88;;;-0.52;100.00
13314;BME280;6725;48.112;11.604;2023-02-14T06:38:18;96152.28;;;-0.61;100.00
13314;BME280;6725;48.112;11.604;2023-02-14T06:40:43;96168.03;;;-0.76;100.00
13314;BME280;6725;48.112;11.604;2023-02-14T06:43:09;96180.16;;;-0.87;100.00
13314;BME280;6725;48.112;11.604;2023-02-14T06:45:34;96166.91;;;-0.84;100.00
13314;BME280;6725;48.112;11.604;2023-02-14T06:47:59;96173.19;;;-0.88;100.00
13314;BME280;6725;48.112;11.604;2023-02-14T06:50:25;96173.53;;;-0.81;100.00
13314;BME280;6725;48.112;11.604;2023-02-14T06:52:50;96169.78;;;-0.80;100.00
13314;BME280;6725;48.112;11.604;2023-02-14T06:55:16;96184.59;;;-0.74;100.00
13314;BME280;6725;48.112;11.604;2023-02-14T06:57:42;96180.81;;;-0.73;100.00
13314;BME280;6725;48.112;11.604;2023-02-14T07:00:08;96177.03;;;-0.72;100.00
13314;BME280;6725;48.112;11.604;2023-02-14T07:02:34;96176.22;;;-0.73;100.00
13314;BME280;6725;48.112;11.604;2023-02-14T07:04:59;96174.47;;;-0.77;100.00
13314;BME280;6725;48.112;11.604;2023-02-14T07:07:25;96189.56;;;-0.98;100.00
13314;BME280;6725;48.112;11.604;2023-02-14T07:09:50;96188.97;;;-0.95;100.00
13314;BME280;6725;48.112;11.604;2023-02-14T07:12:16;96194.44;;;-1.00;100.00
13314;BME280;6725;48.112;11.604;2023-02-14T07:14:41;96190.88;;;-0.87;100.00
13314;BME280;6725;48.112;11.604;2023-02-14T07:17:07;96193.84;;;-0.89;100.00
13314;BME280;6725;48.112;11.604;2023-02-14T07:19:34;96202.31;;;-1.04;100.00
13314;BME280;6725;48.112;11.604;2023-02-14T07:21:59;96205.50;;;-0.93;100.00
13314;BME280;6725;48.112;11.604;2023-02-14T07:24:24;96206.59;;;-0.94;100.00
13314;BME280;6725;48.112;11.604;2023-02-14T07:26:50;96209.91;;;-0.97;100.00
13314;BME280;6725;48.112;11.604;2023-02-14T07:29:15;96211.16;;;-0.95;100.00
13314;BME280;6725;48.112;11.604;2023-02-14T07:31:40;96201.16;;;-0.72;100.00
13314;BME280;6725;48.112;11.604;2023-02-14T07:34:06;96199.44;;;-0.68;100.00
13314;BME280;6725;48.112;11.604;2023-02-14T07:36:32;96198.81;;;-0.65;100.00
13314;BME280;6725;48.112;11.604;2023-02-14T07:38:58;96206.03;;;-0.74;100.00
13314;BME280;6725;48.112;11.604;2023-02-14T07:41:23;96198.81;;;-0.65;100.00
13314;BME280;6725;48.112;11.604;2023-02-14T07:43:48;96203.88;;;-0.55;100.00
13314;BME280;6725;48.112;11.604;2023-02-14T07:46:14;96202.63;;;-0.49;100.00
13314;BME280;6725;48.112;11.604;2023-02-14T07:48:41;96219.94;;;-0.55;100.00
13314;BME280;6725;48.112;11.604;2023-02-14T07:51:07;96220.47;;;-0.45;100.00
13314;BME280;6725;48.112;11.604;2023-02-14T07:53:32;96222.50;;;-0.50;100.00
13314;BME280;6725;48.112;11.604;2023-02-14T07:55:58;96235.28;;;-0.47;100.00
13314;BME280;6725;48.112;11.604;2023-02-14T07:58:23;96243.97;;;-0.50;100.00
13314;BME280;6725;48.112;11.604;2023-02-14T08:00:48;96246.47;;;-0.45;100.00
13314;BME280;6725;48.112;11.604;2023-02-14T08:03:15;96239.88;;;-0.22;100.00
13314;BME280;6725;48.112;11.604;2023-02-14T08:05:40;96257.59;;;-0.21;100.00
13314;BME280;6725;48.112;11.604;2023-02-14T08:08:06;96274.69;;;0.00;100.00
13314;BME280;6725;48.112;11.604;2023-02-14T08:10:32;96286.03;;;0.14;100.00
13314;BME280;6725;48.112;11.604;2023-02-14T08:12:57;96291.91;;;0.33;100.00
13314;BME280;6725;48.112;11.604;2023-02-14T08:15:23;96307.56;;;0.48;100.00
13314;BME280;6725;48.112;11.604;2023-02-14T08:18:07;96327.13;;;0.74;100.00
13314;BME280;6725;48.112;11.604;2023-02-14T08:20:32;96353.66;;;0.84;100.00
13314;BME280;6725;48.112;11.604;2023-02-14T08:22:58;96400.47;;;0.66;100.00
13314;BME280;6725;48.112;11.604;2023-02-14T08:25:23;96435.22;;;0.54;100.00
13314;BME280;6725;48.112;11.604;2023-02-14T08:27:48;96456.59;;;0.76;100.00
13314;BME280;6725;48.112;11.604;2023-02-14T08:30:14;96507.34;;;0.86;100.00
13314;BME280;6725;48.112;11.604;2023-02-14T08:32:39;96550.66;;;0.76;100.00
13314;BME280;6725;48.112;11.604;2023-02-14T08:35:05;96584.34;;;0.82;100.00
13314;BME280;6725;48.112;11.604;2023-02-14T08:37:30;96607.31;;;0.88;100.00
13314;BME280;6725;48.112;11.604;2023-02-14T08:39:55;96626.44;;;0.87;100.00
13314;BME280;6725;48.112;11.604;2023-02-14T08:42:21;96638.66;;;1.01;100.00
13314;BME280;6725;48.112;11.604;2023-02-14T08:44:46;96672.09;;;0.78;100.00
13314;BME280;6725;48.112;11.604;2023-02-14T08:47:12;96681.59;;;0.84;100.00
13314;BME280;6725;48.112;11.604;2023-02-14T08:49:37;96706.63;;;0.93;100.00
13314;BME280;6725;48.112;11.604;2023-02-14T08:52:02;96733.38;;;0.98;100.00
13314;BME280;6725;48.112;11.604;2023-02-14T08:54:28;96739.31;;;1.17;100.00
13314;BME280;6725;48.112;11.604;2023-02-14T08:56:53;96757.34;;;1.17;100.00
13314;BME280;6725;48.112;11.604;2023-02-14T08:59:18;96775.88;;;1.18;100.00
13314;BME280;6725;48.112;11.604;2023-02-14T09:01:44;96797.22;;;0.93;100.00
13314;BME280;6725;48.112;11.604;2023-02-14T09:04:09;96805.34;;;1.01;100.00
13314;BME280;6725;48.112;11.604;2023-02-14T09:06:37;96807.91;;;1.28;100.00
13314;BME280;6725;48.112;11.604;2023-02-14T09:09:03;96821.66;;;1.27;100.00
13314;BME280;6725;48.112;11.604;2023-02-14T09:11:28;96827.16;;;1.52;100.00
13314;BME280;6725;48.112;11.604;2023-02-14T09:13:54;96837.53;;;1.76;100.00
13314;BME280;6725;48.112;11.604;2023-02-14T09:16:20;96854.06;;;1.91;100.00
13314;BME280;6725;48.112;11.604;2023-02-14T09:18:46;96860.75;;;2.02;100.00
13314;BME280;6725;48.112;11.604;2023-02-14T09:21:17;96872.72;;;2.35;100.00
13314;BME280;6725;48.112;11.604;2023-02-14T09:23:42;96881.34;;;2.71;100.00
13314;BME280;6725;48.112;11.604;2023-02-14T09:26:10;96897.38;;;3.02;100.00
13314;BME280;6725;48.112;11.604;2023-02-14T09:28:36;96910.03;;;3.44;100.00
13314;BME280;6725;48.112;11.604;2023-02-14T09:31:16;96936.00;;;3.91;100.00
13314;BME280;6725;48.112;11.604;2023-02-14T09:33:43;96947.41;;;4.05;100.00
13314;BME280;6725;48.112;11.604;2023-02-14T09:36:27;96966.50;;;4.38;100.00
13314;BME280;6725;48.112;11.604;2023-02-14T09:39:11;96972.19;;;4.82;100.00
13314;BME280;6725;48.112;11.604;2023-02-14T09:42:04;96992.91;;;6.34;100.00
13314;BME280;6725;48.112;11.604;2023-02-14T09:44:36;97010.09;;;7.74;100.00
13314;BME280;6725;48.112;11.604;2023-02-14T09:47:30;97019.03;;;8.14;100.00
13314;BME280;6725;48.112;11.604;2023-02-14T09:49:58;97032.31;;;9.05;100.00
13314;BME280;6725;48.112;11.604;2023-02-14T09:52:27;97036.56;;;9.52;100.00
13314;BME280;6725;48.112;11.604;2023-02-14T09:54:57;97038.22;;;9.76;100.00
13314;BME280;6725;48.112;11.604;2023-02-14T10:03:34;97043.63;;;8.17;100.00
13314;BME280;6725;48.112;11.604;2023-02-14T10:08:46;97040.56;;;8.19;100.00
13314;BME280;6725;48.112;11.604;2023-02-14T10:11:19;97040.88;;;7.90;100.00
13314;BME280;6725;48.112;11.604;2023-02-14T10:13:55;97034.16;;;7.99;100.00
13314;BME280;6725;48.112;11.604;2023-02-14T10:16:32;97034.84;;;8.51;100.00
13314;BME280;6725;48.112;11.604;2023-02-14T10:19:05;97034.50;;;8.99;100.00
13314;BME280;6725;48.112;11.604;2023-02-14T10:22:00;97021.41;;;8.58;100.00
13314;BME280;6725;48.112;11.604;2023-02-14T10:24:40;97021.13;;;9.25;100.00
13314;BME280;6725;48.112;11.604;2023-02-14T10:27:36;97023.81;;;9.75;100.00
13314;BME280;6725;48.112;11.604;2023-02-14T10:32:48;97024.94;;;10.28;100.00
13314;BME280;6725;48.112;11.604;2023-02-14T10:35:48;97019.94;;;9.76;100.00
13314;BME280;6725;48.112;11.604;2023-02-14T10:47:03;97014.63;;;9.64;100.00
13314;BME280;6725;48.112;11.604;2023-02-14T10:49:55;97014.13;;;9.43;100.00
13314;BME280;6725;48.112;11.604;2023-02-14T10:52:37;97003.41;;;10.46;100.00
13314;BME280;6725;48.112;11.604;2023-02-14T10:55:12;97000.38;;;10.51;100.00
13314;BME280;6725;48.112;11.604;2023-02-14T10:57:46;96999.06;;;10.64;100.00
13314;BME280;6725;48.112;11.604;2023-02-14T11:00:21;96991.38;;;11.18;100.00
13314;BME280;6725;48.112;11.604;2023-02-14T11:02:52;96992.34;;;10.39;100.00
13314;BME280;6725;48.112;11.604;2023-02-14T11:05:45;96991.94;;;9.60;100.00
13314;BME280;6725;48.112;11.604;2023-02-14T11:08:26;96989.16;;;9.95;100.00
13314;BME280;6725;48.112;11.604;2023-02-14T11:10:54;96981.31;;;9.93;100.00
13314;BME280;6725;48.112;11.604;2023-02-14T11:13:31;96986.34;;;10.10;100.00
13314;BME280;6725;48.112;11.604;2023-02-14T11:16:03;96977.31;;;10.26;100.00
13314;BME280;6725;48.112;11.604;2023-02-14T11:18:29;96971.97;;;9.94;100.00
13314;BME280;6725;48.112;11.604;2023-02-14T11:21:09;96977.53;;;9.44;100.00
13314;BME280;6725;48.112;11.604;2023-02-14T11:23:41;96973.19;;;8.43;100.00
13314;BME280;6725;48.112;11.604;2023-02-14T11:26:29;96968.53;;;7.34;100.00
13314;BME280;6725;48.112;11.604;2023-02-14T11:29:01;96965.13;;;6.61;100.00
13314;BME280;6725;48.112;11.604;2023-02-14T11:31:33;96954.22;;;6.37;100.00
13314;BME280;6725;48.112;11.604;2023-02-14T11:34:00;96953.78;;;6.47;100.00
13314;BME280;6725;48.112;11.604;2023-02-14T11:36:28;96945.19;;;6.21;100.00
13314;BME280;6725;48.112;11.604;2023-02-14T11:39:02;96947.06;;;5.76;100.00
13314;BME280;6725;48.112;11.604;2023-02-14T11:41:48;96933.66;;;5.47;100.00
13314;BME280;6725;48.112;11.604;2023-02-14T11:44:16;96933.25;;;5.36;100.00
13314;BME280;6725;48.112;11.604;2023-02-14T11:46:47;96919.66;;;5.04;100.00
13314;BME280;6725;48.112;11.604;2023-02-14T11:49:32;96918.34;;;5.10;100.00
13314;BME280;6725;48.112;11.604;2023-02-14T11:52:07;96913.28;;;5.41;100.00
13314;BME280;6725;48.112;11.604;2023-02-14T11:54:35;96913.84;;;5.34;100.00
13314;BME280;6725;48.112;11.604;2023-02-14T11:57:02;96914.22;;;5.24;100.00
13314;BME280;6725;48.112;11.604;2023-02-14T11:59:45;96898.63;;;5.42;100.00
13314;BME280;6725;48.112;11.604;2023-02-14T12:04:59;96894.38;;;5.53;100.00
13314;BME280;6725;48.112;11.604;2023-02-14T12:07:30;96893.50;;;5.61;100.00
13314;BME280;6725;48.112;11.604;2023-02-14T12:15:35;96882.75;;;5.52;100.00
13314;BME280;6725;48.112;11.604;2023-02-14T12:23:04;96883.66;;;5.56;100.00
13314;BME280;6725;48.112;11.604;2023-02-14T12:25:43;96882.56;;;5.69;100.00
13314;BME280;6725;48.112;11.604;2023-02-14T12:28:34;96883.88;;;5.84;100.00
13314;BME280;6725;48.112;11.604;2023-02-14T12:31:08;96875.66;;;5.92;100.00
13314;BME280;6725;48.112;11.604;2023-02-14T12:33:34;96880.63;;;5.90;100.00
13314;BME280;6725;48.112;11.604;2023-02-14T12:37:23;96868.91;;;5.78;100.00
13314;BME280;6725;48.112;11.604;2023-02-14T12:39:47;96879.94;;;6.05;100.00
13314;BME280;6725;48.112;11.604;2023-02-14T12:50:28;96855.59;;;5.73;100.00
13314;BME280;6725;48.112;11.604;2023-02-14T12:56:30;96856.56;;;5.89;100.00
13314;BME280;6725;48.112;11.604;2023-02-14T12:59:12;96853.16;;;5.92;100.00
13314;BME280;6725;48.112;11.604;2023-02-14T13:07:00;96848.41;;;5.89;100.00
13314;BME280;6725;48.112;11.604;2023-02-14T13:09:49;96845.91;;;5.72;100.00
13314;BME280;6725;48.112;11.604;2023-02-14T13:12:36;96838.00;;;5.79;100.00
13314;BME280;6725;48.112;11.604;2023-02-14T13:20:49;96814.66;;;6.22;100.00
13314;BME280;6725;48.112;11.604;2023-02-14T13:23:21;96824.25;;;6.08;100.00
13314;BME280;6725;48.112;11.604;2023-02-14T13:25:56;96814.34;;;6.12;100.00
13314;BME280;6725;48.112;11.604;2023-02-14T13:28:24;96823.38;;;6.16;100.00
13314;BME280;6725;48.112;11.604;2023-02-14T13:30:51;96814.53;;;6.19;100.00
13314;BME280;6725;48.112;11.604;2023-02-14T13:33:30;96816.81;;;6.17;100.00
13314;BME280;6725;48.112;11.604;2023-02-14T13:36:00;96820.19;;;6.14;100.00
13314;BME280;6725;48.112;11.604;2023-02-14T13:38:26;96816.13;;;6.20;100.00
13314;BME280;6725;48.112;11.604;2023-02-14T13:40:54;96817.50;;;6.02;100.00
13314;BME280;6725;48.112;11.604;2023-02-14T13:43:44;96811.63;;;6.24;100.00
13314;BME280;6725;48.112;11.604;2023-02-14T13:46:09;96803.25;;;6.05;100.00
13314;BME280;6725;48.112;11.604;2023-02-14T13:48:35;96805.28;;;6.08;100.00
13314;BME280;6725;48.112;11.604;2023-02-14T13:51:06;96803.59;;;6.15;100.00
13314;BME280;6725;48.112;11.604;2023-02-14T13:53:35;96790.50;;;6.17;100.00
13314;BME280;6725;48.112;11.604;2023-02-14T13:58:45;96789.72;;;6.05;100.00
13314;BME280;6725;48.112;11.604;2023-02-14T14:01:31;96786.06;;;5.89;100.00
13314;BME280;6725;48.112;11.604;2023-02-14T14:15:09;96776.56;;;5.71;100.00
13314;BME280;6725;48.112;11.604;2023-02-14T14:20:43;96776.53;;;5.47;100.00
13314;BME280;6725;48.112;11.604;2023-02-14T14:23:27;96765.47;;;5.40;100.00
13314;BME280;6725;48.112;11.604;2023-02-14T14:25:53;96767.03;;;5.41;100.00
13314;BME280;6725;48.112;11.604;2023-02-14T14:28:21;96771.78;;;5.32;100.00
13314;BME280;6725;48.112;11.604;2023-02-14T14:30:48;96763.16;;;5.18;100.00
13314;BME280;6725;48.112;11.604;2023-02-14T14:33:31;96753.91;;;5.31;100.00
13314;BME280;6725;48.112;11.604;2023-02-14T14:36:07;96756.19;;;5.29;100.00
13314;BME280;6725;48.112;11.604;2023-02-14T14:38:45;96752.50;;;5.01;100.00
13314;BME280;6725;48.112;11.604;2023-02-14T14:41:11;96741.66;;;5.01;100.00
13314;BME280;6725;48.112;11.604;2023-02-14T14:43:38;96735.59;;;5.04;100.00
13314;BME280;6725;48.112;11.604;2023-02-14T14:46:07;96720.94;;;5.05;100.00
13314;BME280;6725;48.112;11.604;2023-02-14T14:48:38;96731.09;;;5.08;100.00
13314;BME280;6725;48.112;11.604;2023-02-14T14:51:06;96724.78;;;5.04;100.00
13314;BME280;6725;48.112;11.604;2023-02-14T14:56:02;96723.38;;;4.98;100.00
13314;BME280;6725;48.112;11.604;2023-02-14T14:58:37;96709.16;;;4.89;100.00
13314;BME280;6725;48.112;11.604;2023-02-14T15:01:04;96702.63;;;4.90;100.00
13314;BME280;6725;48.112;11.604;2023-02-14T15:03:30;96691.34;;;4.88;100.00
13314;BME280;6725;48.112;11.604;2023-02-14T15:06:21;96687.59;;;4.80;100.00
13314;BME280;6725;48.112;11.604;2023-02-14T15:08:48;96687.94;;;4.79;100.00
13314;BME280;6725;48.112;11.604;2023-02-14T15:11:26;96685.69;;;4.81;100.00